Time;durP1;ratioP1;P1;durP2;ratioP2;P2;SDS_P1;SDS_P2;PMS_P1;PMS_P2;Temp;Humidity;BMP_temperature;BMP_pressure;BME280_temperature;BME280_humidity;BME280_pressure;Samples;Min_cycle;Max_cycle;Signal;HPM_P1;HPM_P2
2023/07/31 00:00:47;;;;;;;2.88;1.48;;;16.00;61.20;;;;;;5050244;28;20230;-61
2023/07/31 00:03:12;;;;;;;2.40;1.23;;;16.00;61.50;;;;;;5048366;28;20021;-61
2023/07/31 00:05:38;;;;;;;5.47;1.27;;;16.00;61.60;;;;;;5041697;28;20124;-59
2023/07/31 00:08:04;;;;;;;2.25;1.10;;;15.90;61.60;;;;;;5037575;28;20391;-60
2023/07/31 00:10:29;;;;;;;1.77;1.23;;;15.90;61.80;;;;;;5041471;28;20025;-60
2023/07/31 00:12:55;;;;;;;2.92;1.30;;;15.90;62.00;;;;;;5036694;28;20029;-60
2023/07/31 00:15:21;;;;;;;4.53;1.50;;;15.90;62.10;;;;;;5043907;28;20022;-60
2023/07/31 00:17:47;;;;;;;2.70;1.00;;;15.90;62.10;;;;;;5043098;28;20025;-59
2023/07/31 00:20:13;;;;;;;1.48;1.27;;;15.90;62.20;;;;;;5038921;28;20033;-59
2023/07/31 00:22:38;;;;;;;2.40;1.17;;;15.90;62.10;;;;;;5034778;28;20373;-61
2023/07/31 00:25:06;;;;;;;1.98;1.15;;;15.90;62.10;;;;;;5045070;28;20068;-61
2023/07/31 00:27:32;;;;;;;4.97;1.13;;;15.90;62.10;;;;;;5043416;28;20036;-60
2023/07/31 00:29:57;;;;;;;2.80;1.30;;;15.90;62.30;;;;;;5042635;28;20036;-60
2023/07/31 00:32:23;;;;;;;2.38;0.90;;;15.80;62.30;;;;;;5044128;28;20384;-60
2023/07/31 00:34:49;;;;;;;3.63;1.00;;;15.90;62.40;;;;;;5047949;28;20112;-61
2023/07/31 00:37:15;;;;;;;5.53;1.05;;;15.80;62.20;;;;;;5044095;28;21292;-60
2023/07/31 00:39:41;;;;;;;1.92;1.20;;;15.80;62.10;;;;;;5042167;28;20032;-60
2023/07/31 00:42:06;;;;;;;5.05;1.00;;;15.70;62.20;;;;;;5037341;28;20021;-60
2023/07/31 00:44:33;;;;;;;3.80;1.10;;;15.70;62.20;;;;;;5041019;28;20475;-60
2023/07/31 00:46:59;;;;;;;1.25;0.90;;;15.70;62.30;;;;;;5047836;28;20024;-60
2023/07/31 00:49:25;;;;;;;3.00;1.10;;;15.60;62.40;;;;;;5047706;28;20108;-60
2023/07/31 00:51:51;;;;;;;2.40;0.80;;;15.60;62.60;;;;;;5042989;28;20072;-59
2023/07/31 00:54:17;;;;;;;3.47;1.13;;;15.60;62.70;;;;;;5039537;28;20028;-59
2023/07/31 00:56:46;;;;;;;5.25;0.90;;;15.60;62.70;;;;;;5040004;28;20049;-59
2023/07/31 00:59:11;;;;;;;4.47;1.13;;;15.50;62.80;;;;;;5042835;28;20394;-59
2023/07/31 01:01:38;;;;;;;4.57;1.20;;;15.50;62.70;;;;;;5038739;28;20116;-60
2023/07/31 01:04:04;;;;;;;2.92;1.17;;;15.50;62.80;;;;;;5043386;28;20118;-60
2023/07/31 01:06:45;;;;;;;3.33;1.65;;;15.40;62.90;;;;;;5029062;28;20560;-59
2023/07/31 01:09:28;;;;;;;4.18;1.20;;;15.40;63.70;;;;;;5041566;28;20029;-60
2023/07/31 01:12:00;;;;;;;3.92;1.25;;;15.40;63.60;;;;;;5017140;28;20052;-61
2023/07/31 01:14:25;;;;;;;2.78;1.20;;;15.30;63.30;;;;;;5046793;28;20025;-60
2023/07/31 01:16:51;;;;;;;2.72;1.00;;;15.40;63.40;;;;;;4988514;28;20119;-59
2023/07/31 01:19:21;;;;;;;4.43;1.20;;;15.30;63.50;;;;;;5042613;28;20068;-59
2023/07/31 01:22:04;;;;;;;2.33;1.30;;;15.30;63.60;;;;;;5041104;28;20029;-61
2023/07/31 01:24:50;;;;;;;5.03;1.30;;;15.30;64.20;;;;;;5039104;28;20107;-59
2023/07/31 01:27:23;;;;;;;2.05;1.20;;;15.30;65.20;;;;;;4990083;28;20052;-60
2023/07/31 01:30:10;;;;;;;2.33;1.20;;;15.30;63.80;;;;;;5038399;28;20026;-60
2023/07/31 01:32:40;;;;;;;3.55;1.20;;;15.30;64.40;;;;;;5034906;28;20094;-60
2023/07/31 01:35:07;;;;;;;4.35;1.50;;;15.20;63.50;;;;;;5043645;28;20053;-61
2023/07/31 01:37:32;;;;;;;4.68;1.30;;;15.20;63.50;;;;;;5042330;28;20027;-60
2023/07/31 01:39:58;;;;;;;2.40;1.10;;;15.20;63.70;;;;;;5035336;28;20025;-60
2023/07/31 01:42:24;;;;;;;4.70;1.40;;;15.20;63.90;;;;;;5045759;28;20174;-60
2023/07/31 01:44:49;;;;;;;1.75;1.10;;;15.20;64.00;;;;;;5045210;28;20079;-60
2023/07/31 01:47:15;;;;;;;4.07;1.20;;;15.10;64.00;;;;;;5043061;28;20095;-62
2023/07/31 01:49:41;;;;;;;2.22;1.00;;;15.10;63.90;;;;;;5038543;28;20025;-62
2023/07/31 01:52:06;;;;;;;3.10;1.02;;;15.10;64.00;;;;;;5039808;28;20025;-60
2023/07/31 01:54:33;;;;;;;2.58;1.00;;;15.10;64.10;;;;;;5040363;28;20025;-60
2023/07/31 01:56:59;;;;;;;3.95;1.15;;;15.10;64.30;;;;;;5038997;28;20091;-60
2023/07/31 01:59:24;;;;;;;12.15;1.30;;;15.00;64.30;;;;;;5040840;28;20021;-59
2023/07/31 02:01:50;;;;;;;4.95;1.23;;;15.00;64.40;;;;;;5037533;28;20029;-60
2023/07/31 02:04:16;;;;;;;3.47;1.10;;;15.00;64.40;;;;;;5040726;28;20033;-61
2023/07/31 02:06:41;;;;;;;2.42;1.02;;;15.00;64.50;;;;;;5042334;28;20065;-60
2023/07/31 02:09:07;;;;;;;1.63;1.20;;;15.00;64.50;;;;;;5022210;28;20077;-60
2023/07/31 02:11:32;;;;;;;2.47;1.25;;;15.00;64.60;;;;;;5042291;28;20048;-59
2023/07/31 02:13:58;;;;;;;3.60;1.38;;;15.00;64.60;;;;;;5036180;28;20502;-60
2023/07/31 02:16:24;;;;;;;4.50;1.40;;;14.90;64.50;;;;;;4937963;28;20033;-61
2023/07/31 02:18:50;;;;;;;6.38;1.40;;;14.90;64.60;;;;;;5045239;28;20071;-59
2023/07/31 02:21:16;;;;;;;4.78;1.10;;;14.90;64.70;;;;;;5021988;28;20404;-60
2023/07/31 02:23:41;;;;;;;2.13;1.00;;;14.90;64.60;;;;;;5035342;28;20025;-61
2023/07/31 02:26:07;;;;;;;2.33;1.27;;;14.90;64.60;;;;;;5045327;28;20040;-61
2023/07/31 02:28:33;;;;;;;7.95;1.40;;;14.90;64.50;;;;;;5041973;28;20055;-61
2023/07/31 02:30:59;;;;;;;2.70;1.20;;;14.90;64.50;;;;;;5045411;28;20060;-60
2023/07/31 02:33:24;;;;;;;8.55;1.25;;;14.80;64.60;;;;;;5043726;28;20611;-59
2023/07/31 02:35:50;;;;;;;2.50;1.10;;;14.80;64.80;;;;;;5042240;28;20028;-61
2023/07/31 02:38:16;;;;;;;5.35;1.20;;;14.80;65.00;;;;;;5040168;28;20032;-61
2023/07/31 02:40:41;;;;;;;5.85;1.17;;;14.80;64.90;;;;;;5037525;28;20077;-60
2023/07/31 02:43:08;;;;;;;2.00;1.17;;;14.80;64.90;;;;;;5040157;28;20030;-60
2023/07/31 02:45:34;;;;;;;2.95;1.10;;;14.80;65.00;;;;;;5040103;28;20037;-60
2023/07/31 02:48:00;;;;;;;4.43;1.50;;;14.70;65.10;;;;;;5039503;28;20119;-60
2023/07/31 02:50:27;;;;;;;2.15;1.30;;;14.70;65.40;;;;;;5039335;28;20201;-59
2023/07/31 02:52:53;;;;;;;2.72;1.60;;;14.70;65.40;;;;;;5043577;28;20460;-59
2023/07/31 02:55:18;;;;;;;2.80;1.27;;;14.70;65.40;;;;;;5035905;28;20049;-60
2023/07/31 02:57:44;;;;;;;3.72;1.30;;;14.70;65.30;;;;;;5037027;28;20452;-62
2023/07/31 03:00:10;;;;;;;4.68;1.30;;;14.70;65.20;;;;;;5037491;28;20104;-59
2023/07/31 03:02:35;;;;;;;1.13;1.00;;;14.70;65.20;;;;;;5041519;28;20032;-60
2023/07/31 03:05:01;;;;;;;4.43;1.45;;;14.70;65.20;;;;;;5021776;28;20492;-60
2023/07/31 03:07:27;;;;;;;2.67;1.25;;;14.70;65.10;;;;;;5041835;28;20029;-61
2023/07/31 03:09:53;;;;;;;1.73;1.00;;;14.60;65.00;;;;;;5043361;28;20464;-60
2023/07/31 03:12:19;;;;;;;2.15;1.20;;;14.70;65.20;;;;;;5039669;28;20029;-60
2023/07/31 03:14:45;;;;;;;2.70;1.10;;;14.60;65.10;;;;;;5030651;28;20546;-61
2023/07/31 03:17:10;;;;;;;3.55;1.30;;;14.60;65.30;;;;;;4926589;28;20038;-61
2023/07/31 03:19:36;;;;;;;3.90;1.42;;;14.60;65.30;;;;;;5044584;28;20086;-60
2023/07/31 03:22:02;;;;;;;1.77;1.10;;;14.60;65.50;;;;;;5041784;28;20471;-60
2023/07/31 03:24:29;;;;;;;1.73;1.20;;;14.60;65.60;;;;;;5038638;28;20037;-59
2023/07/31 03:26:55;;;;;;;5.28;1.48;;;14.50;65.60;;;;;;5037232;28;20215;-59
2023/07/31 03:29:20;;;;;;;3.63;1.40;;;14.50;65.60;;;;;;5043488;28;20051;-60
2023/07/31 03:31:46;;;;;;;2.33;1.30;;;14.50;65.70;;;;;;5038067;28;20029;-60
2023/07/31 03:34:12;;;;;;;3.45;1.17;;;14.50;65.80;;;;;;5040008;28;20121;-60
2023/07/31 03:36:37;;;;;;;4.55;1.38;;;14.50;65.80;;;;;;5042706;28;20082;-59
2023/07/31 03:39:03;;;;;;;4.93;1.40;;;14.40;65.70;;;;;;5045036;28;20021;-60
2023/07/31 03:41:29;;;;;;;2.20;1.25;;;14.40;65.80;;;;;;5024999;28;20120;-60
2023/07/31 03:43:57;;;;;;;2.38;1.25;;;14.40;65.90;;;;;;5043086;28;20029;-59
2023/07/31 03:46:24;;;;;;;4.32;1.50;;;14.40;66.10;;;;;;5041885;28;20029;-60
2023/07/31 03:48:50;;;;;;;5.25;1.35;;;14.30;66.00;;;;;;5042308;28;20036;-59
2023/07/31 03:51:16;;;;;;;2.78;1.30;;;14.30;66.10;;;;;;5038197;28;20396;-60
2023/07/31 03:53:43;;;;;;;2.10;1.20;;;14.30;66.30;;;;;;5046087;28;20017;-60
2023/07/31 03:56:08;;;;;;;3.03;1.35;;;14.30;66.50;;;;;;5045533;28;20051;-60
2023/07/31 03:58:35;;;;;;;4.00;1.10;;;14.30;66.50;;;;;;5045546;28;20458;-59
2023/07/31 04:01:02;;;;;;;3.42;1.40;;;14.30;66.60;;;;;;5040509;28;20036;-60
2023/07/31 04:03:28;;;;;;;3.35;1.45;;;14.30;66.60;;;;;;5038834;28;20022;-59
2023/07/31 04:05:56;;;;;;;5.38;1.50;;;14.30;66.70;;;;;;5039776;28;20055;-61
2023/07/31 04:08:24;;;;;;;3.33;1.40;;;14.30;66.90;;;;;;5047793;28;20377;-60
2023/07/31 04:10:50;;;;;;;4.22;1.50;;;14.30;67.00;;;;;;5042185;28;20021;-61
2023/07/31 04:13:16;;;;;;;3.88;1.10;;;14.30;67.10;;;;;;5045506;28;20053;-61
2023/07/31 04:15:42;;;;;;;2.22;1.23;;;14.30;67.20;;;;;;5044899;28;20044;-61
2023/07/31 04:18:08;;;;;;;4.93;1.55;;;14.30;67.20;;;;;;5040194;28;20334;-60
2023/07/31 04:20:33;;;;;;;2.65;1.17;;;14.40;67.40;;;;;;5044006;28;20448;-59
2023/07/31 04:22:59;;;;;;;5.00;1.30;;;14.30;67.40;;;;;;5044189;28;20408;-59
2023/07/31 04:25:25;;;;;;;3.38;1.25;;;14.40;67.50;;;;;;5043098;28;20033;-60
2023/07/31 04:27:50;;;;;;;2.72;1.15;;;14.40;67.50;;;;;;5040969;28;20056;-59
2023/07/31 04:30:16;;;;;;;2.58;1.33;;;14.40;67.50;;;;;;5038090;28;20493;-60
2023/07/31 04:32:42;;;;;;;2.47;1.20;;;14.40;67.50;;;;;;5037313;28;20018;-59
2023/07/31 04:35:08;;;;;;;2.55;1.00;;;14.50;67.30;;;;;;5042999;28;20112;-59
2023/07/31 04:37:33;;;;;;;3.50;1.30;;;14.50;67.20;;;;;;5038727;28;20057;-60
2023/07/31 04:39:59;;;;;;;5.47;1.20;;;14.50;67.30;;;;;;5038045;28;20028;-59
2023/07/31 04:42:25;;;;;;;4.32;1.17;;;14.50;68.10;;;;;;5044578;28;20021;-60
2023/07/31 04:44:52;;;;;;;1.88;1.13;;;14.60;67.60;;;;;;5045454;28;20087;-59
2023/07/31 04:47:18;;;;;;;3.20;1.42;;;14.60;67.80;;;;;;5042340;28;20028;-60
2023/07/31 04:49:44;;;;;;;5.10;1.25;;;14.60;68.00;;;;;;5036856;28;20021;-61
2023/07/31 04:52:09;;;;;;;3.60;1.40;;;14.70;68.20;;;;;;5041448;28;20025;-60
2023/07/31 04:54:35;;;;;;;4.13;1.48;;;14.70;68.10;;;;;;5039354;28;20028;-59
2023/07/31 04:57:01;;;;;;;4.80;1.50;;;14.80;68.10;;;;;;5045922;28;20128;-59
2023/07/31 04:59:26;;;;;;;4.22;1.45;;;14.90;68.10;;;;;;5032372;28;20113;-61
2023/07/31 05:01:52;;;;;;;2.03;1.20;;;15.00;68.10;;;;;;5041145;28;20162;-61
2023/07/31 05:04:17;;;;;;;3.50;1.10;;;15.10;68.00;;;;;;5043998;28;20120;-61
2023/07/31 05:06:43;;;;;;;2.42;1.50;;;15.10;67.90;;;;;;5039288;28;20234;-61
2023/07/31 05:09:10;;;;;;;3.20;1.35;;;15.20;67.90;;;;;;5038565;28;20025;-61
2023/07/31 05:11:36;;;;;;;2.17;1.40;;;15.30;67.90;;;;;;5042747;28;20091;-59
2023/07/31 05:14:01;;;;;;;6.93;1.35;;;15.40;67.90;;;;;;5038448;28;20154;-60
2023/07/31 05:16:27;;;;;;;5.60;1.30;;;15.50;68.00;;;;;;4910845;28;20561;-60
2023/07/31 05:18:53;;;;;;;3.05;1.45;;;15.50;67.90;;;;;;5042377;28;20028;-60
2023/07/31 05:21:18;;;;;;;1.85;1.20;;;15.60;67.80;;;;;;5020975;28;20053;-60
2023/07/31 05:23:44;;;;;;;4.60;1.40;;;15.70;67.70;;;;;;5037378;28;20030;-60
2023/07/31 05:26:10;;;;;;;5.15;1.52;;;15.80;68.50;;;;;;5037103;28;20111;-61
2023/07/31 05:28:36;;;;;;;3.17;1.40;;;15.90;67.80;;;;;;5041856;28;20032;-59
2023/07/31 05:31:05;;;;;;;4.72;1.40;;;15.90;68.40;;;;;;5043188;28;20036;-60
2023/07/31 05:33:31;;;;;;;4.07;1.27;;;16.00;67.70;;;;;;5043606;28;20108;-60
2023/07/31 05:35:56;;;;;;;2.53;1.45;;;16.10;67.30;;;;;;5035014;28;20502;-60
2023/07/31 05:38:22;;;;;;;7.45;1.42;;;16.20;67.10;;;;;;5044011;28;20030;-60
2023/07/31 05:40:48;;;;;;;5.53;1.60;;;16.20;67.00;;;;;;5043470;28;20044;-61
2023/07/31 05:43:14;;;;;;;3.60;1.42;;;16.30;67.00;;;;;;5026310;28;20038;-60
2023/07/31 05:45:41;;;;;;;5.35;1.40;;;16.40;67.10;;;;;;5041552;28;20251;-59
2023/07/31 05:48:07;;;;;;;4.25;1.33;;;16.40;67.10;;;;;;5044280;28;20056;-60
2023/07/31 05:50:33;;;;;;;4.53;1.40;;;16.40;67.10;;;;;;5020745;28;20065;-61
2023/07/31 05:52:58;;;;;;;5.75;1.55;;;16.50;67.70;;;;;;5044790;28;20040;-60
2023/07/31 05:55:28;;;;;;;4.22;1.35;;;16.60;67.50;;;;;;5043292;28;20048;-62
2023/07/31 05:57:54;;;;;;;3.35;1.45;;;16.60;67.40;;;;;;5039317;28;20167;-60
2023/07/31 06:00:20;;;;;;;2.88;1.42;;;16.80;67.60;;;;;;5038462;28;20524;-61
2023/07/31 06:02:49;;;;;;;10.25;1.80;;;16.80;67.50;;;;;;5042084;28;20029;-61
2023/07/31 06:05:15;;;;;;;8.52;2.22;;;17.00;67.20;;;;;;5037511;28;20040;-61
2023/07/31 06:07:41;;;;;;;7.65;1.90;;;17.10;67.00;;;;;;5037178;28;20013;-60
2023/07/31 06:10:08;;;;;;;3.80;1.90;;;17.20;67.00;;;;;;5038682;28;20051;-61
2023/07/31 06:12:34;;;;;;;17.00;1.98;;;17.30;66.80;;;;;;5046918;28;20021;-60
2023/07/31 06:15:00;;;;;;;3.58;1.65;;;17.40;66.70;;;;;;5038633;28;20448;-61
2023/07/31 06:17:28;;;;;;;1.77;1.40;;;17.50;66.60;;;;;;5043761;28;20029;-63
2023/07/31 06:19:54;;;;;;;4.47;1.85;;;17.50;66.40;;;;;;5042454;28;20061;-60
2023/07/31 06:22:20;;;;;;;4.22;1.60;;;17.60;66.60;;;;;;5035561;28;20041;-60
2023/07/31 06:24:46;;;;;;;4.20;1.35;;;17.70;66.30;;;;;;5038522;28;20112;-60
2023/07/31 06:27:12;;;;;;;2.08;1.30;;;17.80;66.40;;;;;;5043015;28;20033;-61
2023/07/31 06:29:37;;;;;;;1.77;1.25;;;17.80;66.40;;;;;;5039621;28;20044;-61
2023/07/31 06:32:04;;;;;;;3.00;1.50;;;18.00;66.40;;;;;;5042910;28;20029;-60
2023/07/31 06:34:30;;;;;;;3.88;1.35;;;18.10;66.30;;;;;;5027664;28;20032;-61
2023/07/31 06:36:56;;;;;;;4.72;1.50;;;18.10;66.10;;;;;;5039900;28;20021;-61
2023/07/31 06:39:22;;;;;;;2.63;1.48;;;18.30;65.90;;;;;;5039227;28;20021;-60
2023/07/31 06:41:47;;;;;;;4.53;1.55;;;18.40;65.90;;;;;;5039969;28;20017;-61
2023/07/31 06:44:13;;;;;;;3.90;1.50;;;18.50;65.50;;;;;;5042324;28;20033;-61
2023/07/31 06:46:39;;;;;;;3.40;1.50;;;18.70;65.20;;;;;;5032837;28;20026;-62
2023/07/31 06:49:04;;;;;;;3.35;1.40;;;18.80;65.10;;;;;;5042954;28;20504;-60
2023/07/31 06:51:31;;;;;;;4.65;1.70;;;18.90;64.90;;;;;;5025370;28;20029;-60
2023/07/31 06:53:57;;;;;;;4.38;1.40;;;19.00;64.70;;;;;;5043040;28;20049;-61
2023/07/31 06:56:23;;;;;;;2.70;1.30;;;19.10;64.80;;;;;;5032679;28;20060;-61
2023/07/31 06:58:49;;;;;;;5.32;1.38;;;19.10;64.70;;;;;;5024689;28;20029;-60
2023/07/31 07:01:14;;;;;;;5.40;2.10;;;19.30;64.50;;;;;;5039608;28;20084;-60
2023/07/31 07:03:40;;;;;;;3.63;1.73;;;19.40;64.50;;;;;;5032454;28;20025;-61
2023/07/31 07:06:06;;;;;;;2.80;1.23;;;19.50;64.70;;;;;;5038031;28;20508;-61
2023/07/31 07:08:31;;;;;;;3.92;1.33;;;19.60;64.70;;;;;;5043291;28;20503;-61
2023/07/31 07:10:57;;;;;;;2.00;1.20;;;19.80;64.40;;;;;;5049149;28;20079;-60
2023/07/31 07:13:22;;;;;;;4.30;1.52;;;19.90;63.90;;;;;;5043566;28;20487;-61
2023/07/31 07:15:49;;;;;;;5.18;1.40;;;20.10;62.90;;;;;;5045141;28;20060;-61
2023/07/31 07:18:15;;;;;;;4.05;1.52;;;20.20;62.30;;;;;;5025009;28;20044;-61
2023/07/31 07:20:47;;;;;;;4.07;1.50;;;20.30;61.90;;;;;;5043273;28;20120;-61
2023/07/31 07:23:13;;;;;;;8.77;1.40;;;20.40;61.30;;;;;;5040344;28;20488;-62
2023/07/31 07:25:38;;;;;;;3.75;1.25;;;20.40;60.90;;;;;;5041543;28;20044;-60
2023/07/31 07:28:04;;;;;;;3.38;1.38;;;20.50;60.70;;;;;;5044516;28;20033;-62
2023/07/31 07:30:30;;;;;;;3.85;1.27;;;20.60;60.50;;;;;;5026672;28;20032;-60
2023/07/31 07:32:55;;;;;;;3.67;1.30;;;20.60;60.30;;;;;;5033847;28;20040;-59
2023/07/31 07:35:22;;;;;;;2.67;1.30;;;20.70;60.30;;;;;;5043088;28;20039;-61
2023/07/31 07:37:50;;;;;;;2.08;1.27;;;20.70;60.10;;;;;;5024743;28;20484;-62
2023/07/31 07:40:15;;;;;;;3.83;1.30;;;20.70;59.70;;;;;;5043663;28;20033;-60
2023/07/31 07:42:41;;;;;;;2.00;1.27;;;20.80;59.40;;;;;;5043468;28;20033;-62
2023/07/31 07:45:07;;;;;;;10.77;1.83;;;20.90;59.40;;;;;;5038260;28;20046;-62
2023/07/31 07:47:33;;;;;;;5.85;1.45;;;20.90;58.90;;;;;;5044593;28;20211;-61
2023/07/31 07:49:59;;;;;;;5.32;1.40;;;20.90;58.70;;;;;;5046116;28;20569;-62
2023/07/31 07:52:24;;;;;;;5.50;1.17;;;21.10;58.40;;;;;;5041370;28;20099;-61
2023/07/31 07:54:50;;;;;;;4.85;1.30;;;21.10;58.40;;;;;;5044402;28;20543;-61
2023/07/31 07:57:16;;;;;;;2.85;1.05;;;21.20;58.40;;;;;;5043831;28;20049;-62
2023/07/31 07:59:42;;;;;;;6.55;1.48;;;21.30;58.10;;;;;;5041280;28;20047;-63
2023/07/31 08:02:08;;;;;;;2.53;1.60;;;21.50;57.60;;;;;;5034014;28;20029;-60
2023/07/31 08:04:33;;;;;;;5.68;1.95;;;21.60;57.20;;;;;;5043090;28;20048;-61
2023/07/31 08:06:59;;;;;;;5.70;1.73;;;21.70;56.20;;;;;;5038049;28;20037;-59
2023/07/31 08:09:25;;;;;;;2.10;1.25;;;21.80;56.30;;;;;;5044966;28;20032;-61
2023/07/31 08:11:50;;;;;;;3.03;1.50;;;21.90;55.80;;;;;;5040947;28;20013;-61
2023/07/31 08:14:16;;;;;;;4.47;1.77;;;22.00;55.00;;;;;;5038336;28;20475;-61
2023/07/31 08:16:42;;;;;;;3.63;1.48;;;22.10;54.90;;;;;;4975786;28;20029;-60
2023/07/31 08:19:08;;;;;;;6.47;1.55;;;22.10;54.90;;;;;;5044772;28;20028;-61
2023/07/31 08:21:34;;;;;;;3.38;1.63;;;22.10;54.80;;;;;;5043641;28;20387;-61
2023/07/31 08:23:59;;;;;;;2.67;1.27;;;22.20;54.50;;;;;;5046414;28;20029;-61
2023/07/31 08:26:25;;;;;;;3.63;1.42;;;22.20;54.30;;;;;;5047473;28;20036;-61
2023/07/31 08:28:51;;;;;;;5.25;1.48;;;22.20;54.00;;;;;;5040631;28;20017;-60
2023/07/31 08:31:16;;;;;;;5.45;1.58;;;22.20;53.70;;;;;;5041394;28;20040;-60
2023/07/31 08:33:42;;;;;;;5.25;1.90;;;22.20;53.50;;;;;;5038207;28;20025;-60
2023/07/31 08:36:07;;;;;;;6.90;1.80;;;22.10;53.30;;;;;;5046719;28;20204;-60
2023/07/31 08:38:33;;;;;;;6.50;1.95;;;22.10;53.00;;;;;;5042051;28;20029;-60
2023/07/31 08:40:59;;;;;;;7.22;1.92;;;22.00;53.10;;;;;;5038871;28;20025;-60
2023/07/31 08:43:28;;;;;;;5.60;2.20;;;22.10;53.60;;;;;;5036792;28;20185;-60
2023/07/31 08:45:54;;;;;;;5.03;1.65;;;22.20;53.20;;;;;;5035013;28;20040;-60
2023/07/31 08:48:22;;;;;;;7.70;1.75;;;22.30;53.80;;;;;;5042626;28;20033;-61
2023/07/31 08:50:48;;;;;;;4.45;1.65;;;22.50;53.50;;;;;;5041456;28;20452;-60
2023/07/31 08:53:13;;;;;;;5.30;2.05;;;22.60;53.00;;;;;;5040797;28;20060;-60
2023/07/31 08:55:40;;;;;;;6.40;2.15;;;22.80;52.70;;;;;;5045104;28;20081;-59
2023/07/31 08:58:06;;;;;;;5.70;2.08;;;22.90;52.30;;;;;;5034483;28;20026;-60
2023/07/31 09:00:32;;;;;;;5.75;2.47;;;23.10;51.80;;;;;;5041547;28;20025;-61
2023/07/31 09:03:02;;;;;;;7.07;1.85;;;23.20;51.10;;;;;;5042340;28;20439;-60
2023/07/31 09:05:30;;;;;;;3.90;1.70;;;23.30;50.50;;;;;;5045741;28;20033;-60
2023/07/31 09:07:57;;;;;;;8.02;2.22;;;23.40;50.50;;;;;;5020601;28;20128;-60
2023/07/31 09:10:22;;;;;;;8.85;2.38;;;23.50;51.00;;;;;;5038994;28;20025;-60
2023/07/31 09:12:50;;;;;;;8.20;2.33;;;23.70;51.00;;;;;;5033864;28;20497;-60
2023/07/31 09:15:16;;;;;;;6.28;1.70;;;23.90;51.20;;;;;;5040982;28;20033;-59
2023/07/31 09:17:42;;;;;;;5.20;2.00;;;24.00;50.20;;;;;;5040602;28;20032;-61
2023/07/31 09:20:17;;;;;;;5.45;2.30;;;24.10;50.00;;;;;;5043714;28;20036;-61
2023/07/31 09:22:44;;;;;;;5.90;2.25;;;24.20;47.80;;;;;;5048230;28;20025;-61
2023/07/31 09:25:19;;;;;;;5.28;1.65;;;24.30;49.10;;;;;;5029859;28;20064;-62
2023/07/31 09:27:48;;;;;;;5.85;1.80;;;24.40;48.50;;;;;;5040737;28;20036;-60
2023/07/31 09:30:16;;;;;;;5.00;1.73;;;24.40;48.30;;;;;;5023824;28;20021;-61
2023/07/31 09:32:43;;;;;;;4.82;2.20;;;24.50;48.00;;;;;;5044229;28;20104;-61
2023/07/31 09:35:21;;;;;;;5.07;1.65;;;24.60;47.10;;;;;;5048772;28;20070;-60
2023/07/31 09:37:51;;;;;;;4.78;1.77;;;24.50;47.10;;;;;;5024183;28;20033;-61
2023/07/31 09:40:29;;;;;;;6.57;1.85;;;24.50;47.00;;;;;;5042699;28;20349;-61
2023/07/31 09:43:03;;;;;;;6.18;1.73;;;24.50;46.60;;;;;;5043483;28;20103;-61
2023/07/31 09:45:30;;;;;;;4.10;1.75;;;24.60;47.20;;;;;;5039645;28;20030;-61
2023/07/31 09:47:56;;;;;;;4.15;1.92;;;24.60;48.00;;;;;;5040731;28;20037;-62
2023/07/31 09:50:24;;;;;;;3.97;1.80;;;24.70;47.30;;;;;;5038236;28;20486;-60
2023/07/31 09:52:50;;;;;;;5.93;1.85;;;24.80;46.90;;;;;;5041494;28;20056;-62
2023/07/31 09:55:16;;;;;;;4.25;1.83;;;24.80;46.10;;;;;;5042175;28;20049;-61
2023/07/31 09:57:48;;;;;;;6.40;2.10;;;24.90;46.60;;;;;;5042492;28;20083;-61
2023/07/31 10:00:18;;;;;;;5.00;2.25;;;24.90;44.90;;;;;;5041588;28;20059;-60
2023/07/31 10:02:48;;;;;;;3.15;1.63;;;25.00;45.90;;;;;;5020203;28;20381;-60
2023/07/31 10:05:18;;;;;;;4.88;1.90;;;25.00;45.40;;;;;;5040465;28;20028;-61
2023/07/31 10:07:51;;;;;;;3.15;1.70;;;25.10;45.30;;;;;;5038102;28;20025;-60
2023/07/31 10:10:21;;;;;;;3.10;1.60;;;25.10;45.00;;;;;;5037439;28;20029;-60
2023/07/31 10:12:52;;;;;;;5.00;1.90;;;25.20;44.60;;;;;;5036875;28;20017;-61
2023/07/31 10:15:19;;;;;;;3.78;1.58;;;25.30;45.50;;;;;;5044571;28;20029;-60
2023/07/31 10:17:47;;;;;;;3.08;1.65;;;25.40;45.50;;;;;;5042976;28;20055;-62
2023/07/31 10:20:16;;;;;;;4.80;1.80;;;25.50;45.50;;;;;;5037157;28;20028;-60
2023/07/31 10:22:45;;;;;;;5.32;1.70;;;25.60;45.30;;;;;;5036934;28;20507;-60
2023/07/31 10:25:11;;;;;;;3.22;1.95;;;25.70;45.50;;;;;;5039223;28;20036;-62
2023/07/31 10:27:39;;;;;;;2.88;1.75;;;25.80;44.50;;;;;;5043642;28;20020;-61
2023/07/31 10:30:08;;;;;;;5.70;1.85;;;25.90;43.10;;;;;;5046644;28;20630;-61
2023/07/31 10:32:34;;;;;;;2.65;1.67;;;25.80;42.90;;;;;;5038475;28;20025;-61
2023/07/31 10:35:03;;;;;;;3.50;2.05;;;25.80;43.30;;;;;;5042597;28;20021;-61
2023/07/31 10:37:35;;;;;;;5.70;1.90;;;25.70;43.10;;;;;;5036560;28;20021;-60
2023/07/31 10:40:03;;;;;;;2.47;1.40;;;25.60;43.60;;;;;;5045080;28;20033;-61
2023/07/31 10:42:39;;;;;;;4.63;1.80;;;25.60;44.40;;;;;;5039774;28;20480;-61
2023/07/31 10:45:09;;;;;;;10.93;1.52;;;25.50;43.80;;;;;;5039933;28;20049;-62
2023/07/31 10:47:39;;;;;;;4.22;1.80;;;25.60;44.20;;;;;;5042975;28;20028;-61
2023/07/31 10:50:17;;;;;;;4.18;1.58;;;25.60;44.20;;;;;;5040610;28;20036;-60
2023/07/31 10:52:47;;;;;;;11.43;1.80;;;25.60;43.90;;;;;;5041255;28;20548;-60
2023/07/31 10:55:25;;;;;;;3.83;1.70;;;25.70;44.80;;;;;;5041660;28;20029;-60
2023/07/31 10:57:52;;;;;;;2.80;1.58;;;25.80;44.30;;;;;;5037500;28;20379;-59
2023/07/31 11:00:28;;;;;;;4.15;1.77;;;26.00;44.50;;;;;;5043916;28;20103;-60
2023/07/31 11:03:06;;;;;;;4.43;1.50;;;26.10;43.80;;;;;;5030577;28;20503;-62
2023/07/31 11:05:47;;;;;;;5.95;1.90;;;26.10;43.70;;;;;;5040498;28;20063;-60
2023/07/31 11:08:19;;;;;;;5.03;1.63;;;26.20;43.00;;;;;;5037661;28;20479;-62
2023/07/31 11:10:45;;;;;;;2.97;1.50;;;26.30;43.60;;;;;;5038345;28;20025;-60
2023/07/31 11:13:12;;;;;;;5.35;2.22;;;26.40;43.80;;;;;;5040466;28;20032;-61
2023/07/31 11:15:38;;;;;;;4.15;1.70;;;26.40;43.50;;;;;;5036647;28;20025;-62
2023/07/31 11:18:05;;;;;;;3.35;1.70;;;26.40;43.50;;;;;;4934570;28;20079;-61
2023/07/31 11:20:34;;;;;;;5.07;1.77;;;26.50;43.70;;;;;;5038472;28;20029;-61
2023/07/31 11:23:09;;;;;;;4.63;1.73;;;26.60;43.00;;;;;;5036755;28;20037;-61
2023/07/31 11:25:35;;;;;;;4.35;1.85;;;26.70;42.50;;;;;;5031756;28;20087;-61
2023/07/31 11:28:13;;;;;;;5.00;1.50;;;26.80;42.40;;;;;;5037526;28;20025;-61
2023/07/31 11:30:40;;;;;;;4.68;1.90;;;26.90;42.10;;;;;;5035812;28;20361;-61
2023/07/31 11:33:07;;;;;;;3.75;1.85;;;27.10;42.30;;;;;;5037478;28;20037;-61
2023/07/31 11:35:35;;;;;;;2.65;1.50;;;27.10;41.60;;;;;;5030545;28;20100;-62
2023/07/31 11:38:01;;;;;;;3.80;1.95;;;27.30;41.00;;;;;;5037865;28;20467;-62
2023/07/31 11:40:29;;;;;;;3.28;1.80;;;27.30;41.40;;;;;;5031319;28;20452;-61
2023/07/31 11:42:58;;;;;;;4.38;2.15;;;27.30;40.70;;;;;;5041287;28;20033;-61
2023/07/31 11:45:28;;;;;;;3.75;1.92;;;27.40;40.80;;;;;;5016197;28;20553;-62
2023/07/31 11:47:57;;;;;;;3.30;1.70;;;27.50;40.00;;;;;;5045754;28;20036;-61
2023/07/31 11:50:27;;;;;;;2.53;1.60;;;27.60;40.00;;;;;;5042986;28;20488;-62
2023/07/31 11:53:01;;;;;;;4.10;1.85;;;27.70;40.60;;;;;;5023799;28;20032;-63
2023/07/31 11:55:26;;;;;;;;;;;27.70;39.50;;;;;;5045695;28;20037;-60
2023/07/31 11:57:55;;;;;;;4.90;2.33;;;27.80;41.20;;;;;;5041118;28;20275;-62
2023/07/31 12:00:21;;;;;;;4.63;2.00;;;27.80;40.90;;;;;;5039886;28;20032;-60
2023/07/31 12:02:47;;;;;;;4.32;2.17;;;27.90;40.50;;;;;;5036309;28;20463;-61
2023/07/31 12:05:13;;;;;;;4.38;1.67;;;27.90;40.30;;;;;;5044147;28;20037;-61
2023/07/31 12:07:48;;;;;;;5.78;1.88;;;27.90;39.60;;;;;;5043288;28;20040;-63
2023/07/31 12:10:31;;;;;;;4.03;2.10;;;28.00;40.00;;;;;;5045877;28;20396;-62
2023/07/31 12:13:06;;;;;;;4.90;2.40;;;27.90;39.00;;;;;;5044800;28;20395;-61
2023/07/31 12:15:39;;;;;;;3.22;1.75;;;28.00;40.00;;;;;;5041140;28;20111;-60
2023/07/31 12:18:10;;;;;;;4.10;1.90;;;28.10;40.20;;;;;;4975056;28;20364;-61
2023/07/31 12:20:39;;;;;;;4.35;1.80;;;28.30;40.20;;;;;;5043703;28;20099;-61
2023/07/31 12:23:05;;;;;;;5.05;2.13;;;28.40;39.30;;;;;;5044673;28;20040;-61
2023/07/31 12:25:32;;;;;;;3.38;1.90;;;28.50;38.40;;;;;;5046731;28;20036;-62
2023/07/31 12:28:03;;;;;;;5.25;2.00;;;28.50;37.50;;;;;;5044629;28;20113;-62
2023/07/31 12:30:34;;;;;;;4.68;2.25;;;28.50;38.40;;;;;;5044113;28;20033;-61
2023/07/31 12:33:12;;;;;;;3.42;1.98;;;28.40;37.80;;;;;;5037038;28;20044;-61
2023/07/31 12:35:41;;;;;;;5.00;2.03;;;28.40;37.50;;;;;;5041453;28;20082;-62
2023/07/31 12:38:06;;;;;;;10.48;2.38;;;28.30;38.30;;;;;;5043897;28;20057;-62
2023/07/31 12:40:32;;;;;;;4.80;2.15;;;28.20;38.70;;;;;;5040837;28;20117;-62
2023/07/31 12:43:02;;;;;;;2.85;1.90;;;28.20;39.40;;;;;;5037266;28;20072;-61
2023/07/31 12:45:28;;;;;;;3.85;1.70;;;28.30;39.60;;;;;;5041502;28;20039;-61
2023/07/31 12:47:54;;;;;;;7.20;2.10;;;28.40;39.80;;;;;;5043967;28;20033;-62